Time;durP1;ratioP1;P1;durP2;ratioP2;P2;SDS_P1;SDS_P2;PMS_P1;PMS_P2;Temp;Humidity;BMP_temperature;BMP_pressure;BME280_temperature;BME280_humidity;BME280_pressure;Samples;Min_cycle;Max_cycle;Signal;HPM_P1;HPM_P2
2024/04/20 00:01:01;;;;;;;0.60;0.60;;;;;;;;;;5519808;26;20231;-58
2024/04/20 00:03:29;;;;;;;0.60;0.53;;;;;;;;;;5524360;26;20253;-58
2024/04/20 00:05:58;;;;;;;0.73;0.73;;;;;;;;;;5520283;25;20226;-58
2024/04/20 00:08:27;;;;;;;0.60;0.60;;;;;;;;;;5519188;25;20734;-58
2024/04/20 00:10:56;;;;;;;0.77;0.60;;;;;;;;;;5490802;25;20286;-58
2024/04/20 00:13:25;;;;;;;0.60;0.60;;;;;;;;;;5487475;26;20258;-58
2024/04/20 00:15:56;;;;;;;1.47;0.63;;;;;;;;;;5510430;25;20272;-58
2024/04/20 00:18:25;;;;;;;0.63;0.50;;;;;;;;;;5511087;26;20788;-58
2024/04/20 00:20:54;;;;;;;3.47;0.70;;;;;;;;;;5519481;26;20573;-58
2024/04/20 00:23:23;;;;;;;0.60;0.50;;;;;;;;;;5505183;26;20230;-58
2024/04/20 00:25:52;;;;;;;0.80;0.73;;;;;;;;;;5521666;25;20563;-58
2024/04/20 00:28:21;;;;;;;0.50;0.50;;;;;;;;;;5517079;25;20231;-58
2024/04/20 00:31:02;;;;;;;0.63;0.60;;;;;;;;;;5502260;25;20628;-58
2024/04/20 00:33:31;;;;;;;1.80;0.60;;;;;;;;;;5524031;26;20776;-58
2024/04/20 00:36:00;;;;;;;0.67;0.67;;;;;;;;;;5519914;25;20234;-58
2024/04/20 00:38:29;;;;;;;0.50;0.50;;;;;;;;;;5521783;26;20225;-58
2024/04/20 00:40:58;;;;;;;0.80;0.80;;;;;;;;;;5520528;26;20266;-58
2024/04/20 00:43:27;;;;;;;2.20;1.03;;;;;;;;;;5522951;26;20737;-58
2024/04/20 00:45:58;;;;;;;1.23;0.73;;;;;;;;;;5523670;25;20784;-58
2024/04/20 00:48:30;;;;;;;0.60;0.60;;;;;;;;;;5516725;25;20250;-58
2024/04/20 00:51:00;;;;;;;0.50;0.50;;;;;;;;;;5504127;26;20756;-58
2024/04/20 00:53:29;;;;;;;0.67;0.60;;;;;;;;;;5523390;25;20273;-59
2024/04/20 00:55:58;;;;;;;0.60;0.60;;;;;;;;;;5523468;25;20229;-58
2024/04/20 00:58:29;;;;;;;1.33;0.53;;;;;;;;;;5521757;26;20237;-58
2024/04/20 01:00:59;;;;;;;0.60;0.50;;;;;;;;;;5507390;26;20234;-58
2024/04/20 01:03:30;;;;;;;0.40;0.40;;;;;;;;;;5522994;26;20230;-58
2024/04/20 01:06:01;;;;;;;0.83;0.40;;;;;;;;;;5523227;25;20271;-58
2024/04/20 01:08:30;;;;;;;0.40;0.40;;;;;;;;;;5521742;26;20235;-58
2024/04/20 01:10:56;;;;;;;0.70;0.30;;;;;;;;;;5516554;26;20229;-58
2024/04/20 01:13:27;;;;;;;0.47;0.47;;;;;;;;;;5523445;26;20332;-58
2024/04/20 01:15:56;;;;;;;1.30;0.53;;;;;;;;;;5522796;26;20366;-58
2024/04/20 01:18:25;;;;;;;2.40;0.30;;;;;;;;;;5503422;25;20232;-58
2024/04/20 01:20:56;;;;;;;2.00;0.40;;;;;;;;;;5510864;25;20230;-58
2024/04/20 01:23:25;;;;;;;2.40;0.50;;;;;;;;;;5526888;25;20264;-58
2024/04/20 01:25:57;;;;;;;2.80;0.20;;;;;;;;;;5526309;26;20223;-61
2024/04/20 01:28:26;;;;;;;1.80;0.30;;;;;;;;;;5525388;26;20232;-58
2024/04/20 01:30:55;;;;;;;0.40;0.30;;;;;;;;;;5509205;26;20229;-58
2024/04/20 01:33:24;;;;;;;0.43;0.30;;;;;;;;;;5489962;26;20219;-58
2024/04/20 01:35:53;;;;;;;0.30;0.30;;;;;;;;;;5509401;26;20230;-58
2024/04/20 01:38:22;;;;;;;0.50;0.33;;;;;;;;;;5524272;26;20272;-58
2024/04/20 01:40:51;;;;;;;1.27;0.30;;;;;;;;;;5509888;26;20230;-58
2024/04/20 01:43:22;;;;;;;3.73;0.47;;;;;;;;;;5506917;26;20234;-58
2024/04/20 01:45:51;;;;;;;1.80;0.30;;;;;;;;;;5513889;25;20554;-58
2024/04/20 01:48:20;;;;;;;0.20;0.20;;;;;;;;;;5506753;26;20376;-58
2024/04/20 01:50:49;;;;;;;1.57;0.30;;;;;;;;;;5502022;25;20226;-58
2024/04/20 01:53:18;;;;;;;5.10;0.67;;;;;;;;;;5503518;26;20235;-58
2024/04/20 01:55:47;;;;;;;1.20;0.30;;;;;;;;;;5517231;26;20314;-58
2024/04/20 01:58:16;;;;;;;2.23;0.60;;;;;;;;;;5523686;26;20277;-58
2024/04/20 02:00:47;;;;;;;0.50;0.30;;;;;;;;;;5523814;26;20234;-58
2024/04/20 02:03:16;;;;;;;0.67;0.37;;;;;;;;;;5523823;26;20273;-58
2024/04/20 02:05:45;;;;;;;3.40;0.60;;;;;;;;;;5525412;25;20235;-58
2024/04/20 02:08:15;;;;;;;0.40;0.40;;;;;;;;;;5489548;25;20235;-58
2024/04/20 02:10:44;;;;;;;0.30;0.30;;;;;;;;;;5493849;26;20781;-58
2024/04/20 02:13:13;;;;;;;1.37;0.30;;;;;;;;;;5526217;26;20617;-58
2024/04/20 02:15:42;;;;;;;0.40;0.40;;;;;;;;;;5523651;26;20229;-58
2024/04/20 02:18:17;;;;;;;1.23;0.30;;;;;;;;;;5510498;25;20228;-58
2024/04/20 02:20:46;;;;;;;0.30;0.30;;;;;;;;;;5523754;26;20328;-58
2024/04/20 02:23:15;;;;;;;0.83;0.53;;;;;;;;;;5504316;26;20360;-58
2024/04/20 02:25:45;;;;;;;0.40;0.40;;;;;;;;;;5493884;26;20265;-58
2024/04/20 02:28:13;;;;;;;0.60;0.60;;;;;;;;;;5497658;26;20752;-58
2024/04/20 02:30:42;;;;;;;2.03;0.90;;;;;;;;;;5525141;25;20228;-58
2024/04/20 02:33:11;;;;;;;2.00;0.20;;;;;;;;;;5501329;25;20229;-58
2024/04/20 02:35:43;;;;;;;0.77;0.23;;;;;;;;;;5525341;26;20221;-58
2024/04/20 02:38:12;;;;;;;0.43;0.20;;;;;;;;;;5525791;25;20237;-58
2024/04/20 02:40:41;;;;;;;0.83;0.70;;;;;;;;;;5499797;26;20859;-58
2024/04/20 02:43:10;;;;;;;0.20;0.20;;;;;;;;;;5520114;25;20312;-58
2024/04/20 02:45:39;;;;;;;0.40;0.30;;;;;;;;;;5524289;25;20229;-58
2024/04/20 02:48:10;;;;;;;0.97;0.30;;;;;;;;;;5525277;26;20230;-58
2024/04/20 02:50:39;;;;;;;0.47;0.47;;;;;;;;;;5524945;26;20372;-58
2024/04/20 02:53:14;;;;;;;2.13;0.50;;;;;;;;;;5524114;26;20593;-58
2024/04/20 02:55:43;;;;;;;0.60;0.23;;;;;;;;;;5508480;26;20356;-58
2024/04/20 02:58:12;;;;;;;0.20;0.20;;;;;;;;;;5489136;26;20279;-58
2024/04/20 03:00:41;;;;;;;1.37;0.30;;;;;;;;;;5487960;26;20248;-58
2024/04/20 03:03:11;;;;;;;0.63;0.30;;;;;;;;;;5488586;26;20284;-58
2024/04/20 03:05:40;;;;;;;0.30;0.27;;;;;;;;;;5514402;26;20276;-58
2024/04/20 03:08:11;;;;;;;0.87;0.30;;;;;;;;;;5524223;26;20227;-58
2024/04/20 03:10:40;;;;;;;2.00;0.60;;;;;;;;;;5521792;25;20569;-58
2024/04/20 03:13:11;;;;;;;0.43;0.23;;;;;;;;;;5525246;26;20597;-58
2024/04/20 03:15:40;;;;;;;0.67;0.30;;;;;;;;;;5524884;25;20229;-58
2024/04/20 03:18:12;;;;;;;0.10;0.10;;;;;;;;;;5523629;25;20217;-58
2024/04/20 03:20:41;;;;;;;0.47;0.40;;;;;;;;;;5511925;25;20280;-58
2024/04/20 03:23:12;;;;;;;0.63;0.30;;;;;;;;;;5523309;26;20280;-59
2024/04/20 03:25:41;;;;;;;1.90;0.57;;;;;;;;;;5519917;25;20225;-58
2024/04/20 03:28:10;;;;;;;0.83;0.20;;;;;;;;;;5519790;25;20729;-58
2024/04/20 03:30:39;;;;;;;0.20;0.20;;;;;;;;;;5495043;26;20271;-59
2024/04/20 03:33:08;;;;;;;0.33;0.20;;;;;;;;;;5509397;26;20285;-58
2024/04/20 03:35:37;;;;;;;0.20;0.20;;;;;;;;;;5524838;25;20274;-58
2024/04/20 03:38:09;;;;;;;1.10;0.57;;;;;;;;;;5524842;26;20217;-59
2024/04/20 03:40:41;;;;;;;0.83;0.30;;;;;;;;;;5523265;25;20278;-58
2024/04/20 03:43:10;;;;;;;0.83;0.37;;;;;;;;;;5523000;25;20233;-58
2024/04/20 03:45:39;;;;;;;0.50;0.50;;;;;;;;;;5518686;26;20241;-58
2024/04/20 03:48:12;;;;;;;0.73;0.37;;;;;;;;;;5524909;25;20271;-58
2024/04/20 03:50:41;;;;;;;0.87;0.30;;;;;;;;;;5523706;26;20271;-58
2024/04/20 03:53:10;;;;;;;0.37;0.37;;;;;;;;;;5517589;25;20269;-58
2024/04/20 03:55:42;;;;;;;1.50;0.30;;;;;;;;;;5511621;25;20555;-58
2024/04/20 03:58:12;;;;;;;3.00;0.57;;;;;;;;;;5490540;26;20239;-58
2024/04/20 04:00:41;;;;;;;0.43;0.43;;;;;;;;;;5484381;26;20579;-57
2024/04/20 04:03:15;;;;;;;0.47;0.43;;;;;;;;;;5513225;26;20233;-57
2024/04/20 04:05:44;;;;;;;0.53;0.50;;;;;;;;;;5524644;25;20225;-59
2024/04/20 04:08:13;;;;;;;1.90;0.40;;;;;;;;;;5518608;25;20342;-58
2024/04/20 04:10:44;;;;;;;1.80;0.80;;;;;;;;;;5487746;26;20230;-59
2024/04/20 04:13:14;;;;;;;2.83;0.63;;;;;;;;;;5487483;26;20269;-58
2024/04/20 04:15:43;;;;;;;0.77;0.73;;;;;;;;;;5487494;26;20231;-58
2024/04/20 04:18:13;;;;;;;1.17;0.70;;;;;;;;;;5487192;26;20235;-58
2024/04/20 04:20:42;;;;;;;2.93;0.70;;;;;;;;;;5520974;25;20226;-58
2024/04/20 04:23:12;;;;;;;4.30;0.83;;;;;;;;;;5518551;25;20237;-58
2024/04/20 04:25:41;;;;;;;4.07;2.07;;;;;;;;;;5487328;26;20709;-58
2024/04/20 04:28:15;;;;;;;6.83;2.40;;;;;;;;;;5487280;26;20356;-58
2024/04/20 04:30:44;;;;;;;3.93;0.97;;;;;;;;;;5486484;26;20339;-58
2024/04/20 04:33:13;;;;;;;2.17;0.87;;;;;;;;;;5486896;26;20278;-58
2024/04/20 04:35:42;;;;;;;2.37;0.83;;;;;;;;;;5493426;26;20223;-58
2024/04/20 04:38:11;;;;;;;2.63;1.13;;;;;;;;;;5523595;26;20225;-58
2024/04/20 04:40:40;;;;;;;5.07;0.60;;;;;;;;;;5512616;25;20267;-58
2024/04/20 04:43:13;;;;;;;1.93;0.70;;;;;;;;;;5497810;26;20941;-58
2024/04/20 04:45:42;;;;;;;3.87;1.10;;;;;;;;;;5494163;26;20236;-58
2024/04/20 04:48:11;;;;;;;1.90;0.90;;;;;;;;;;5502699;25;20230;-58
2024/04/20 04:50:40;;;;;;;2.33;0.70;;;;;;;;;;5513134;25;20285;-58
2024/04/20 04:53:10;;;;;;;2.73;1.10;;;;;;;;;;5511829;26;20230;-58
2024/04/20 04:55:39;;;;;;;4.17;1.30;;;;;;;;;;5490305;26;20585;-58
2024/04/20 04:58:13;;;;;;;8.10;1.67;;;;;;;;;;5489881;26;20347;-58
2024/04/20 05:00:43;;;;;;;2.67;0.70;;;;;;;;;;5489540;26;20225;-58
2024/04/20 05:03:12;;;;;;;6.47;1.43;;;;;;;;;;5490085;26;20232;-58
2024/04/20 05:05:40;;;;;;;6.67;1.43;;;;;;;;;;5517503;25;20333;-58
2024/04/20 05:08:10;;;;;;;6.43;1.90;;;;;;;;;;5526893;25;20775;-58
2024/04/20 05:10:39;;;;;;;3.20;1.13;;;;;;;;;;5511088;26;20358;-58
2024/04/20 05:13:13;;;;;;;2.90;0.97;;;;;;;;;;5519379;25;20231;-58
2024/04/20 05:15:43;;;;;;;2.20;0.90;;;;;;;;;;5525584;26;20228;-58
2024/04/20 05:18:14;;;;;;;4.53;1.50;;;;;;;;;;5525844;25;20227;-58
2024/04/20 05:20:43;;;;;;;7.07;2.00;;;;;;;;;;5525844;26;20276;-57
2024/04/20 05:23:13;;;;;;;2.83;1.07;;;;;;;;;;5526313;25;20890;-58
2024/04/20 05:25:42;;;;;;;1.80;1.20;;;;;;;;;;5525249;25;20266;-58
2024/04/20 05:28:14;;;;;;;3.50;1.20;;;;;;;;;;5517551;25;20229;-58
2024/04/20 05:30:43;;;;;;;5.13;1.43;;;;;;;;;;5519310;26;20277;-58
2024/04/20 05:33:12;;;;;;;3.37;0.90;;;;;;;;;;5508206;25;20289;-58
2024/04/20 05:35:41;;;;;;;0.73;0.73;;;;;;;;;;5518372;25;20223;-58
2024/04/20 05:38:11;;;;;;;2.10;1.10;;;;;;;;;;5518535;25;20222;-58
2024/04/20 05:40:40;;;;;;;2.43;0.97;;;;;;;;;;5522317;25;20758;-58
2024/04/20 05:43:09;;;;;;;3.43;0.97;;;;;;;;;;5522197;26;20230;-57
2024/04/20 05:45:41;;;;;;;0.80;0.67;;;;;;;;;;5513963;25;20228;-57
2024/04/20 05:48:10;;;;;;;2.63;1.03;;;;;;;;;;5515793;25;20233;-58
2024/04/20 05:50:39;;;;;;;2.53;0.67;;;;;;;;;;5509985;26;20309;-57
2024/04/20 05:53:10;;;;;;;1.10;0.70;;;;;;;;;;5522704;26;20776;-57
2024/04/20 05:55:39;;;;;;;3.93;1.23;;;;;;;;;;5513372;26;20735;-58
2024/04/20 05:58:12;;;;;;;2.47;0.60;;;;;;;;;;5503329;25;20294;-58
2024/04/20 06:00:46;;;;;;;1.70;0.60;;;;;;;;;;5520502;25;20237;-58
2024/04/20 06:03:15;;;;;;;2.10;0.67;;;;;;;;;;5514785;25;20278;-58
2024/04/20 06:05:47;;;;;;;5.20;0.70;;;;;;;;;;5514487;25;20238;-58
2024/04/20 06:08:16;;;;;;;4.63;0.90;;;;;;;;;;5524190;26;20246;-58
2024/04/20 06:10:54;;;;;;;2.07;0.47;;;;;;;;;;5522937;25;20229;-58
2024/04/20 06:13:23;;;;;;;4.50;0.90;;;;;;;;;;5524352;25;20290;-58
2024/04/20 06:15:55;;;;;;;1.43;0.60;;;;;;;;;;5523761;25;20275;-58
2024/04/20 06:18:24;;;;;;;1.47;0.60;;;;;;;;;;5511575;26;20586;-58
2024/04/20 06:20:54;;;;;;;7.10;1.00;;;;;;;;;;5524976;25;20238;-58
2024/04/20 06:23:23;;;;;;;2.77;1.33;;;;;;;;;;5522159;25;20229;-58
2024/04/20 06:25:52;;;;;;;3.33;0.60;;;;;;;;;;5524439;25;20230;-58
2024/04/20 06:28:21;;;;;;;1.73;0.60;;;;;;;;;;5506282;26;20443;-58
2024/04/20 06:30:52;;;;;;;5.00;1.10;;;;;;;;;;5523686;25;20312;-54
2024/04/20 06:33:24;;;;;;;6.03;0.80;;;;;;;;;;5510328;26;20229;-55
2024/04/20 06:35:53;;;;;;;0.40;0.40;;;;;;;;;;5523692;26;20713;-55
2024/04/20 06:38:21;;;;;;;9.43;0.97;;;;;;;;;;5511575;26;20234;-62
2024/04/20 06:40:50;;;;;;;4.03;0.50;;;;;;;;;;5516650;26;20233;-62
2024/04/20 06:43:20;;;;;;;1.03;0.40;;;;;;;;;;5522654;26;20291;-59
2024/04/20 06:45:49;;;;;;;2.30;0.40;;;;;;;;;;5508631;26;20561;-58
2024/04/20 06:48:17;;;;;;;1.70;0.30;;;;;;;;;;5513357;25;20228;-59
2024/04/20 06:50:49;;;;;;;0.43;0.30;;;;;;;;;;5510395;26;20299;-58
2024/04/20 06:53:18;;;;;;;0.53;0.50;;;;;;;;;;5509900;25;20233;-59
2024/04/20 06:55:56;;;;;;;3.07;0.30;;;;;;;;;;5519189;26;20239;-58
2024/04/20 06:58:26;;;;;;;1.73;0.73;;;;;;;;;;5521585;26;20285;-60
2024/04/20 07:00:55;;;;;;;3.80;0.70;;;;;;;;;;5507751;25;20229;-57
2024/04/20 07:03:24;;;;;;;1.60;0.50;;;;;;;;;;5509031;26;20234;-58
2024/04/20 07:05:59;;;;;;;1.10;0.47;;;;;;;;;;5502087;25;22304;-57
2024/04/20 07:08:28;;;;;;;1.70;0.47;;;;;;;;;;5510610;26;20254;-58
2024/04/20 07:10:58;;;;;;;0.20;0.20;;;;;;;;;;5504211;26;20331;-57
2024/04/20 07:13:28;;;;;;;0.63;0.30;;;;;;;;;;5507311;26;20757;-59
2024/04/20 07:15:57;;;;;;;0.93;0.30;;;;;;;;;;5507460;26;20223;-57
2024/04/20 07:18:26;;;;;;;0.57;0.33;;;;;;;;;;5502750;26;20739;-58
2024/04/20 07:20:55;;;;;;;2.27;0.30;;;;;;;;;;5506387;26;21068;-58
2024/04/20 07:23:27;;;;;;;0.87;0.30;;;;;;;;;;5508065;26;20879;-57
2024/04/20 07:26:00;;;;;;;1.67;0.30;;;;;;;;;;5516457;25;20329;-59
2024/04/20 07:28:29;;;;;;;1.17;0.20;;;;;;;;;;5507392;26;20225;-57
2024/04/20 07:30:58;;;;;;;3.27;0.33;;;;;;;;;;5508456;25;20278;-58
2024/04/20 07:33:27;;;;;;;0.23;0.23;;;;;;;;;;5492194;25;20916;-57
2024/04/20 07:35:56;;;;;;;2.00;0.30;;;;;;;;;;5482716;26;20280;-56
2024/04/20 07:38:28;;;;;;;2.63;0.53;;;;;;;;;;5489096;26;20239;-58
2024/04/20 07:40:57;;;;;;;1.80;0.60;;;;;;;;;;5502293;26;20231;-58
2024/04/20 07:43:26;;;;;;;1.10;0.50;;;;;;;;;;5507608;25;20232;-57
2024/04/20 07:45:54;;;;;;;1.10;0.40;;;;;;;;;;5504694;25;20805;-57
2024/04/20 07:48:23;;;;;;;0.40;0.40;;;;;;;;;;5504630;25;20801;-57
2024/04/20 07:50:52;;;;;;;2.90;0.97;;;;;;;;;;5509093;26;20233;-59
2024/04/20 07:53:22;;;;;;;2.73;1.13;;;;;;;;;;5492245;26;20247;-57
2024/04/20 07:55:54;;;;;;;1.27;0.30;;;;;;;;;;5504464;26;20281;-58
2024/04/20 07:58:22;;;;;;;0.57;0.57;;;;;;;;;;5506470;26;20284;-59
2024/04/20 08:00:51;;;;;;;1.80;0.43;;;;;;;;;;5504564;26;20760;-60
2024/04/20 08:03:20;;;;;;;0.50;0.30;;;;;;;;;;5507007;26;20276;-60
2024/04/20 08:05:49;;;;;;;0.40;0.40;;;;;;;;;;5507029;26;20230;-58
2024/04/20 08:08:18;;;;;;;0.87;0.70;;;;;;;;;;5518048;26;20242;-57
2024/04/20 08:10:47;;;;;;;1.27;0.57;;;;;;;;;;5506153;26;20224;-57
2024/04/20 08:13:19;;;;;;;2.10;1.03;;;;;;;;;;5506400;25;20284;-58
2024/04/20 08:15:48;;;;;;;1.03;0.67;;;;;;;;;;5504672;25;20227;-57
2024/04/20 08:18:17;;;;;;;1.13;0.50;;;;;;;;;;5505066;26;20625;-57
2024/04/20 08:20:52;;;;;;;0.40;0.40;;;;;;;;;;5517512;26;20777;-56
2024/04/20 08:23:21;;;;;;;0.67;0.50;;;;;;;;;;5512315;25;20229;-59
2024/04/20 08:25:50;;;;;;;1.03;0.80;;;;;;;;;;5512025;25;20243;-58
2024/04/20 08:28:22;;;;;;;1.27;0.50;;;;;;;;;;5514050;26;20274;-58
2024/04/20 08:30:51;;;;;;;0.40;0.40;;;;;;;;;;5512199;26;20241;-58
2024/04/20 08:33:20;;;;;;;0.93;0.40;;;;;;;;;;5517961;26;20238;-58
2024/04/20 08:35:49;;;;;;;0.30;0.30;;;;;;;;;;5507951;25;20278;-58
2024/04/20 08:38:18;;;;;;;0.40;0.40;;;;;;;;;;5500289;25;20282;-58
2024/04/20 08:40:47;;;;;;;0.30;0.30;;;;;;;;;;5494822;26;20296;-58
2024/04/20 08:43:17;;;;;;;1.40;0.20;;;;;;;;;;5506097;26;20760;-58
2024/04/20 08:45:49;;;;;;;0.33;0.33;;;;;;;;;;5508199;25;20226;-58
2024/04/20 08:48:19;;;;;;;1.10;0.20;;;;;;;;;;5502053;25;20236;-58
2024/04/20 08:50:48;;;;;;;2.80;0.60;;;;;;;;;;5507777;25;20238;-58
2024/04/20 08:53:18;;;;;;;0.30;0.20;;;;;;;;;;5506690;26;20237;-58
2024/04/20 08:55:47;;;;;;;0.90;0.47;;;;;;;;;;5508216;26;20280;-58
2024/04/20 08:58:16;;;;;;;0.73;0.40;;;;;;;;;;5501334;25;20272;-58
2024/04/20 09:00:46;;;;;;;0.70;0.40;;;;;;;;;;5504923;26;20282;-58
2024/04/20 09:03:18;;;;;;;0.67;0.20;;;;;;;;;;5502262;25;20226;-58
2024/04/20 09:05:48;;;;;;;1.37;0.20;;;;;;;;;;5501964;26;20231;-58
2024/04/20 09:08:17;;;;;;;0.20;0.20;;;;;;;;;;5499743;26;20237;-58
2024/04/20 09:10:46;;;;;;;0.30;0.30;;;;;;;;;;5503281;26;20346;-58
2024/04/20 09:13:15;;;;;;;2.00;0.50;;;;;;;;;;5503703;26;20746;-59
2024/04/20 09:15:44;;;;;;;1.40;0.20;;;;;;;;;;5508278;25;20234;-58
2024/04/20 09:18:13;;;;;;;0.70;0.40;;;;;;;;;;5502883;25;20277;-58
2024/04/20 09:20:45;;;;;;;0.60;0.40;;;;;;;;;;5506230;25;20330;-58
2024/04/20 09:23:14;;;;;;;1.93;0.30;;;;;;;;;;5503174;25;20234;-58
2024/04/20 09:25:43;;;;;;;1.20;0.40;;;;;;;;;;5510879;25;20229;-58
2024/04/20 09:28:12;;;;;;;0.30;0.30;;;;;;;;;;5513371;26;20230;-57
2024/04/20 09:30:41;;;;;;;2.03;0.50;;;;;;;;;;5497952;26;20317;-58
2024/04/20 09:33:14;;;;;;;0.40;0.40;;;;;;;;;;5501260;26;20734;-58
2024/04/20 09:35:46;;;;;;;0.57;0.57;;;;;;;;;;5506433;25;20831;-58
2024/04/20 09:38:15;;;;;;;1.37;0.50;;;;;;;;;;5506226;25;20230;-58
2024/04/20 09:40:44;;;;;;;7.00;0.70;;;;;;;;;;5504966;26;20901;-60
2024/04/20 09:43:14;;;;;;;1.53;0.77;;;;;;;;;;5542472;21;20750;-59
2024/04/20 09:45:44;;;;;;;0.67;0.50;;;;;;;;;;5516102;25;20272;-60
2024/04/20 09:48:16;;;;;;;0.77;0.77;;;;;;;;;;5524985;25;20273;-62
2024/04/20 09:50:50;;;;;;;2.43;0.90;;;;;;;;;;5522390;25;20284;-62
2024/04/20 09:53:24;;;;;;;1.97;0.60;;;;;;;;;;5526695;26;20289;-62
2024/04/20 09:55:54;;;;;;;0.80;0.80;;;;;;;;;;5463493;26;20289;-62
2024/04/20 09:58:25;;;;;;;1.13;0.50;;;;;;;;;;5468736;26;20679;-62
2024/04/20 10:00:54;;;;;;;0.40;0.40;;;;;;;;;;5462906;26;20233;-62
2024/04/20 10:03:23;;;;;;;0.60;0.60;;;;;;;;;;5462142;26;20809;-63
2024/04/20 10:05:56;;;;;;;0.50;0.50;;;;;;;;;;5464480;26;20321;-62
2024/04/20 10:08:25;;;;;;;1.60;0.37;;;;;;;;;;5460822;26;20236;-62
2024/04/20 10:10:54;;;;;;;0.30;0.30;;;;;;;;;;5466254;26;20242;-60
2024/04/20 10:13:25;;;;;;;0.20;0.20;;;;;;;;;;5465287;26;20232;-63
2024/04/20 10:15:55;;;;;;;4.50;0.20;;;;;;;;;;5466155;26;20857;-64
2024/04/20 10:18:24;;;;;;;0.20;0.20;;;;;;;;;;5488784;26;20233;-64
2024/04/20 10:20:59;;;;;;;1.00;0.53;;;;;;;;;;5503561;26;20276;-62
2024/04/20 10:23:29;;;;;;;0.30;0.30;;;;;;;;;;5473246;26;20231;-63
2024/04/20 10:25:59;;;;;;;0.47;0.40;;;;;;;;;;5480411;26;20227;-64
2024/04/20 10:28:28;;;;;;;0.50;0.50;;;;;;;;;;5471428;26;20234;-58
2024/04/20 10:30:58;;;;;;;0.57;0.57;;;;;;;;;;5465759;26;20275;-58
2024/04/20 10:33:30;;;;;;;0.70;0.60;;;;;;;;;;5461766;26;20251;-58
2024/04/20 10:36:06;;;;;;;1.13;0.70;;;;;;;;;;5463233;26;20238;-59
2024/04/20 10:38:35;;;;;;;0.60;0.60;;;;;;;;;;5460809;26;20230;-58
2024/04/20 10:41:15;;;;;;;1.43;0.57;;;;;;;;;;5465736;26;20240;-59
2024/04/20 10:43:44;;;;;;;1.53;0.60;;;;;;;;;;5461518;26;20248;-58
2024/04/20 10:46:13;;;;;;;0.60;0.60;;;;;;;;;;5470179;26;20227;-59
2024/04/20 10:48:42;;;;;;;0.83;0.60;;;;;;;;;;5465998;26;20249;-63
2024/04/20 10:51:16;;;;;;;0.87;0.70;;;;;;;;;;5460186;26;20229;-61
2024/04/20 10:53:45;;;;;;;0.50;0.50;;;;;;;;;;5460396;26;20347;-63
2024/04/20 10:56:16;;;;;;;0.70;0.70;;;;;;;;;;5466721;26;20232;-63
2024/04/20 10:58:47;;;;;;;1.80;0.30;;;;;;;;;;5468710;26;20230;-63
2024/04/20 11:01:18;;;;;;;0.50;0.47;;;;;;;;;;5466119;26;20239;-65
2024/04/20 11:03:47;;;;;;;0.50;0.50;;;;;;;;;;5465134;26;20235;-64
2024/04/20 11:06:21;;;;;;;0.93;0.40;;;;;;;;;;5465095;26;20231;-66
2024/04/20 11:08:50;;;;;;;0.40;0.40;;;;;;;;;;5460035;26;20243;-65
2024/04/20 11:11:20;;;;;;;0.30;0.30;;;;;;;;;;5472500;26;20235;-65
2024/04/20 11:13:59;;;;;;;0.40;0.33;;;;;;;;;;5461796;26;20231;-65
2024/04/20 11:16:29;;;;;;;0.70;0.70;;;;;;;;;;5459376;26;20257;-63
2024/04/20 11:18:58;;;;;;;1.13;1.10;;;;;;;;;;5483694;26;20248;-65
2024/04/20 11:21:30;;;;;;;0.60;0.60;;;;;;;;;;5463288;26;20742;-63
2024/04/20 11:23:59;;;;;;;0.93;0.67;;;;;;;;;;5466885;26;20274;-62
2024/04/20 11:26:28;;;;;;;0.30;0.30;;;;;;;;;;5467216;26;20589;-63
2024/04/20 11:28:57;;;;;;;1.27;0.73;;;;;;;;;;5463910;26;20246;-63
2024/04/20 11:31:26;;;;;;;0.80;0.80;;;;;;;;;;5464601;26;20232;-62
2024/04/20 11:33:55;;;;;;;0.80;0.60;;;;;;;;;;5480333;26;20282;-73
2024/04/20 11:36:25;;;;;;;0.93;0.93;;;;;;;;;;5462121;26;20231;-67
2024/04/20 11:38:56;;;;;;;1.30;0.40;;;;;;;;;;5481528;26;20231;-66
2024/04/20 11:41:26;;;;;;;1.60;0.30;;;;;;;;;;5472164;26;20238;-65
2024/04/20 11:43:55;;;;;;;2.90;0.40;;;;;;;;;;5466841;26;20778;-64
2024/04/20 11:46:21;;;;;;;1.17;0.57;;;;;;;;;;5460106;26;20235;-60
2024/04/20 11:48:50;;;;;;;0.40;0.40;;;;;;;;;;5480849;26;20278;-61
2024/04/20 11:54:17;;;;;;;1.63;0.60;;;;;;;;;;5457550;26;20296;-60
2024/04/20 11:54:21;;;;;;;0.47;0.40;;;;;;;;;;5475394;26;20221;-61
2024/04/20 11:56:50;;;;;;;0.50;0.20;;;;;;;;;;5467997;26;20234;-60
2024/04/20 11:59:19;;;;;;;2.90;0.67;;;;;;;;;;5467739;26;20279;-63
2024/04/20 12:01:47;;;;;;;1.47;0.33;;;;;;;;;;5469898;26;20288;-61
2024/04/20 12:04:16;;;;;;;0.77;0.47;;;;;;;;;;5466617;26;20242;-60
2024/04/20 12:06:45;;;;;;;0.30;0.30;;;;;;;;;;5456390;26;20236;-62
2024/04/20 12:09:14;;;;;;;1.80;0.40;;;;;;;;;;5466673;26;20239;-62
2024/04/20 12:11:46;;;;;;;0.70;0.60;;;;;;;;;;5477346;26;20307;-67
2024/04/20 12:14:14;;;;;;;1.13;0.40;;;;;;;;;;5474788;26;20309;-64
2024/04/20 12:16:43;;;;;;;0.43;0.43;;;;;;;;;;5483460;26;20269;-62
2024/04/20 12:19:12;;;;;;;0.50;0.50;;;;;;;;;;5470843;26;20231;-62
2024/04/20 12:21:41;;;;;;;1.33;0.40;;;;;;;;;;5464775;26;20247;-62
2024/04/20 12:24:10;;;;;;;0.73;0.50;;;;;;;;;;5459130;26;20243;-63
2024/04/20 12:26:40;;;;;;;0.57;0.57;;;;;;;;;;5456785;26;20229;-65
2024/04/20 12:29:12;;;;;;;0.40;0.40;;;;;;;;;;5455746;26;20230;-65
2024/04/20 12:31:41;;;;;;;3.20;0.60;;;;;;;;;;5459635;26;20800;-65
2024/04/20 12:34:12;;;;;;;0.77;0.30;;;;;;;;;;5457184;26;20235;-65
2024/04/20 12:36:38;;;;;;;0.93;0.93;;;;;;;;;;5465927;26;20365;-64
2024/04/20 12:39:09;;;;;;;0.70;0.70;;;;;;;;;;5468851;26;20242;-62
2024/04/20 12:41:38;;;;;;;2.10;1.10;;;;;;;;;;5467816;26;20298;-62
2024/04/20 12:44:07;;;;;;;1.13;0.60;;;;;;;;;;5470808;26;20610;-65
2024/04/20 12:46:39;;;;;;;0.53;0.53;;;;;;;;;;5479991;26;20228;-63
2024/04/20 12:49:08;;;;;;;0.70;0.70;;;;;;;;;;5470098;26;20236;-63
2024/04/20 12:51:37;;;;;;;1.63;0.70;;;;;;;;;;5478517;26;20273;-66
2024/04/20 12:54:06;;;;;;;0.70;0.70;;;;;;;;;;5464603;26;20241;-63
2024/04/20 12:56:35;;;;;;;0.60;0.60;;;;;;;;;;5461759;26;20269;-63
2024/04/20 12:59:04;;;;;;;1.07;0.70;;;;;;;;;;5496291;26;20227;-63
2024/04/20 13:01:34;;;;;;;0.60;0.60;;;;;;;;;;5464392;26;20290;-64
2024/04/20 13:04:06;;;;;;;0.50;0.50;;;;;;;;;;5498005;26;20263;-64
2024/04/20 13:06:38;;;;;;;0.70;0.70;;;;;;;;;;5460714;26;20224;-63
2024/04/20 13:09:07;;;;;;;0.80;0.80;;;;;;;;;;5480908;26;20278;-63
2024/04/20 13:11:36;;;;;;;0.70;0.70;;;;;;;;;;5486011;26;20233;-64
2024/04/20 13:14:04;;;;;;;0.60;0.60;;;;;;;;;;5505420;26;20284;-63
2024/04/20 13:16:33;;;;;;;0.73;0.73;;;;;;;;;;5486229;26;20277;-64
2024/04/20 13:19:02;;;;;;;0.67;0.50;;;;;;;;;;5474970;26;20239;-63
2024/04/20 13:21:35;;;;;;;1.47;0.70;;;;;;;;;;5486438;26;20231;-63
2024/04/20 13:24:03;;;;;;;0.60;0.60;;;;;;;;;;5491604;26;20275;-63
2024/04/20 13:26:32;;;;;;;0.70;0.70;;;;;;;;;;5495156;26;20275;-63
2024/04/20 13:29:01;;;;;;;0.77;0.77;;;;;;;;;;5499852;26;20230;-63
2024/04/20 13:31:30;;;;;;;0.97;0.90;;;;;;;;;;5467282;26;20230;-63
2024/04/20 13:33:59;;;;;;;1.53;0.63;;;;;;;;;;5455377;26;20662;-63
2024/04/20 13:36:28;;;;;;;0.70;0.70;;;;;;;;;;5471195;26;20233;-63
2024/04/20 13:39:00;;;;;;;0.70;0.70;;;;;;;;;;5486269;26;20619;-62
2024/04/20 13:41:29;;;;;;;0.67;0.67;;;;;;;;;;5465524;26;20286;-63
2024/04/20 13:43:58;;;;;;;0.80;0.80;;;;;;;;;;5482497;26;20262;-63
2024/04/20 13:46:27;;;;;;;0.70;0.70;;;;;;;;;;5486559;26;20733;-63
2024/04/20 13:48:57;;;;;;;0.70;0.70;;;;;;;;;;5480594;26;20227;-63
2024/04/20 13:51:26;;;;;;;0.90;0.70;;;;;;;;;;5483780;26;20243;-63
2024/04/20 13:53:56;;;;;;;0.83;0.77;;;;;;;;;;5453635;26;20275;-63
2024/04/20 13:56:27;;;;;;;1.80;0.60;;;;;;;;;;5458043;26;21047;-63
2024/04/20 13:58:59;;;;;;;0.77;0.70;;;;;;;;;;5460313;26;20275;-63
2024/04/20 14:01:29;;;;;;;2.00;0.70;;;;;;;;;;5459528;26;20232;-63
2024/04/20 14:03:59;;;;;;;1.73;0.60;;;;;;;;;;5474789;26;20274;-64
2024/04/20 14:06:28;;;;;;;0.90;0.90;;;;;;;;;;5458538;26;20242;-62
2024/04/20 14:08:57;;;;;;;0.70;0.70;;;;;;;;;;5463375;26;20735;-62
2024/04/20 14:11:29;;;;;;;1.17;1.07;;;;;;;;;;5483583;26;20259;-64
2024/04/20 14:13:58;;;;;;;0.60;0.60;;;;;;;;;;5459933;26;20269;-63
2024/04/20 14:16:27;;;;;;;0.60;0.60;;;;;;;;;;5453261;26;20275;-63
2024/04/20 14:18:56;;;;;;;1.00;0.53;;;;;;;;;;5453853;26;20228;-63
2024/04/20 14:21:25;;;;;;;0.80;0.80;;;;;;;;;;5480879;26;20226;-63
2024/04/20 14:23:54;;;;;;;0.57;0.57;;;;;;;;;;5479275;26;20231;-63
2024/04/20 14:26:23;;;;;;;2.00;0.70;;;;;;;;;;5489389;26;20269;-59
2024/04/20 14:28:56;;;;;;;1.40;0.60;;;;;;;;;;5488975;26;20222;-60
2024/04/20 14:31:25;;;;;;;2.40;1.07;;;;;;;;;;5475207;26;20235;-61
2024/04/20 14:33:54;;;;;;;1.70;0.43;;;;;;;;;;5477209;26;20228;-67
2024/04/20 14:36:23;;;;;;;1.47;0.50;;;;;;;;;;5488243;26;21874;-62
2024/04/20 14:38:52;;;;;;;2.00;0.80;;;;;;;;;;5488512;26;20225;-63
2024/04/20 14:41:21;;;;;;;3.50;0.73;;;;;;;;;;5487654;26;20232;-62
2024/04/20 14:43:50;;;;;;;0.70;0.70;;;;;;;;;;5495557;26;20227;-62
2024/04/20 14:46:22;;;;;;;2.57;0.70;;;;;;;;;;5500199;26;20223;-62
2024/04/20 14:48:50;;;;;;;3.57;0.60;;;;;;;;;;5487455;26;20291;-62
2024/04/20 14:51:19;;;;;;;4.73;2.50;;;;;;;;;;5483384;26;20282;-62
2024/04/20 14:53:48;;;;;;;15.50;4.30;;;;;;;;;;5487245;26;20233;-62
2024/04/20 14:56:17;;;;;;;2.50;1.40;;;;;;;;;;5487220;26;20235;-62
2024/04/20 14:58:46;;;;;;;17.80;5.43;;;;;;;;;;5487497;26;20583;-61